Adairville, Kentucky
Current Conditions -  °F | °C
As of 3:53 PM on Friday 31 Oct 2014 (Local Time) from KBWG Reporting Station
Broken Clouds Broken Clouds  
Wind Chill: 40°   Ceiling: 4500
Heat Index: 47°   Visibility: 10mi
Dew Point: 27°   Wind: 18mph
Humidity: 46%   Direction: 320°NW
Pressure: 30.05"   Gusts: 28mph
Location:  36.67°N, 86.85°W
Report Text: KBWG 312053Z AUTO 32016G24KT 280V340 10SM BKN045 08/M03 A3005 RMK AO2 SLP176 60001 T00831028 50015
Loading
Personal Weather Stations






























Interactive Weather Map
Tropical Storm Tracking
New forecast layout! Learn more

10-Day Weather Forecast

Advertisements
Track Severe Weather on mobile